createdAt,value
2018-07-08T00:00:54.026Z,99.90
2018-07-08T00:03:21.493Z,99.90
2018-07-08T00:05:48.939Z,99.90
2018-07-08T00:08:16.495Z,99.90
2018-07-08T00:10:51.909Z,99.90
2018-07-08T00:13:19.537Z,99.90
2018-07-08T00:15:47.451Z,99.90
2018-07-08T00:18:15.219Z,99.90
2018-07-08T00:20:42.705Z,99.90
2018-07-08T00:23:10.321Z,99.90
2018-07-08T00:25:37.793Z,99.90
2018-07-08T00:28:05.209Z,99.90
2018-07-08T00:30:32.667Z,99.90
2018-07-08T00:33:00.184Z,99.90
2018-07-08T00:35:27.529Z,99.90
2018-07-08T00:37:55.125Z,99.90
2018-07-08T00:40:22.574Z,99.90
2018-07-08T00:42:50.055Z,99.90
2018-07-08T00:45:17.415Z,99.90
2018-07-08T00:47:44.840Z,99.90
2018-07-08T00:50:12.290Z,99.90
2018-07-08T00:52:39.657Z,99.90
2018-07-08T00:55:07.239Z,99.90
2018-07-08T00:57:34.709Z,99.90
2018-07-08T01:00:02.255Z,99.90
2018-07-08T01:02:29.542Z,99.90
2018-07-08T01:04:56.930Z,99.90
2018-07-08T01:07:24.320Z,99.90
2018-07-08T01:09:51.778Z,99.90
2018-07-08T01:12:19.204Z,99.90
2018-07-08T01:14:46.546Z,99.90
2018-07-08T01:17:13.925Z,99.90
2018-07-08T01:19:41.292Z,99.90
2018-07-08T01:22:08.666Z,99.90
2018-07-08T01:24:36.107Z,99.90
2018-07-08T01:27:03.650Z,99.90
2018-07-08T01:29:31.041Z,99.90
2018-07-08T01:31:58.474Z,99.90
2018-07-08T01:34:25.914Z,99.90
2018-07-08T01:36:53.412Z,99.90
2018-07-08T01:39:20.834Z,99.90
2018-07-08T01:41:48.214Z,99.90
2018-07-08T01:44:15.823Z,99.90
2018-07-08T01:46:43.457Z,99.90
2018-07-08T01:49:10.909Z,99.90
2018-07-08T01:51:38.288Z,99.90
2018-07-08T01:54:05.750Z,99.90
2018-07-08T01:56:33.125Z,99.90
2018-07-08T01:59:00.620Z,99.90
2018-07-08T02:01:28.082Z,99.90
2018-07-08T02:03:55.548Z,99.90
2018-07-08T02:06:22.953Z,99.90
2018-07-08T02:08:50.406Z,99.90
2018-07-08T02:11:17.814Z,99.90
2018-07-08T02:13:53.318Z,99.90
2018-07-08T02:16:20.911Z,99.90
2018-07-08T02:18:48.282Z,99.90
2018-07-08T02:21:15.772Z,99.90
2018-07-08T02:23:43.486Z,99.90
2018-07-08T02:26:10.943Z,99.90
2018-07-08T02:28:38.458Z,99.90
2018-07-08T02:31:06.234Z,99.90
2018-07-08T02:33:33.667Z,99.90
2018-07-08T02:36:01.521Z,99.90
2018-07-08T02:38:28.940Z,99.90
2018-07-08T02:40:56.378Z,99.90
2018-07-08T02:43:23.818Z,99.90
2018-07-08T02:45:53.508Z,99.90
2018-07-08T02:48:20.922Z,99.90
2018-07-08T02:50:48.349Z,99.90
2018-07-08T02:53:15.778Z,99.90
2018-07-08T02:55:43.250Z,99.90
2018-07-08T02:58:10.662Z,99.90
2018-07-08T03:00:37.980Z,99.90
2018-07-08T03:03:05.476Z,99.90
2018-07-08T03:05:32.853Z,99.90
2018-07-08T03:08:00.286Z,99.90
2018-07-08T03:15:22.265Z,99.90
2018-07-08T03:17:49.642Z,99.90
2018-07-08T03:20:17.033Z,99.90
2018-07-08T03:22:44.404Z,99.90
2018-07-08T03:25:11.849Z,99.90
2018-07-08T03:27:39.193Z,99.90
2018-07-08T03:30:06.513Z,99.90
2018-07-08T03:32:33.815Z,99.90
2018-07-08T03:35:01.234Z,99.90
2018-07-08T03:37:28.543Z,99.90
2018-07-08T03:39:55.876Z,99.90
2018-07-08T03:42:23.323Z,99.90
2018-07-08T03:44:50.609Z,99.90
2018-07-08T03:47:17.980Z,99.90
2018-07-08T03:49:45.387Z,99.90
2018-07-08T03:52:12.747Z,99.90
2018-07-08T03:54:40.184Z,99.90
2018-07-08T03:57:07.597Z,99.90
2018-07-08T03:59:35.015Z,99.90
2018-07-08T04:02:02.402Z,99.90
2018-07-08T04:04:29.832Z,99.90
2018-07-08T04:06:57.182Z,99.90
2018-07-08T04:09:24.601Z,99.90
2018-07-08T04:11:51.962Z,99.90
2018-07-08T04:14:19.322Z,99.90
2018-07-08T04:16:46.856Z,99.90
2018-07-08T04:19:14.244Z,99.90
2018-07-08T04:21:41.606Z,99.90
2018-07-08T04:24:09.060Z,99.90
2018-07-08T04:26:36.418Z,99.90
2018-07-08T04:29:03.902Z,99.90
2018-07-08T04:31:31.377Z,99.90
2018-07-08T04:33:58.768Z,99.90
2018-07-08T04:36:26.118Z,99.90
2018-07-08T04:38:53.552Z,99.90
2018-07-08T04:41:20.930Z,99.90
2018-07-08T04:43:48.303Z,99.90
2018-07-08T04:46:15.738Z,99.90
2018-07-08T04:48:43.114Z,99.90
2018-07-08T04:51:10.574Z,99.90
2018-07-08T04:53:38.007Z,99.90
2018-07-08T04:56:05.525Z,99.90
2018-07-08T04:58:32.935Z,99.90
2018-07-08T05:01:00.319Z,99.90
2018-07-08T05:03:27.654Z,99.90
2018-07-08T05:05:55.080Z,99.90
2018-07-08T05:08:22.476Z,99.90
2018-07-08T05:10:49.856Z,99.90
2018-07-08T05:13:17.242Z,99.90
2018-07-08T05:15:44.650Z,99.90
2018-07-08T05:18:12.002Z,99.90
2018-07-08T05:20:39.413Z,99.90
2018-07-08T05:23:06.782Z,99.90
2018-07-08T05:25:34.178Z,99.90
2018-07-08T05:28:01.692Z,99.90
2018-07-08T05:30:29.160Z,99.90
2018-07-08T05:32:56.542Z,99.90
2018-07-08T05:35:23.986Z,99.90
2018-07-08T05:37:51.382Z,99.90
2018-07-08T05:40:18.773Z,99.90
2018-07-08T05:42:46.137Z,99.90
2018-07-08T05:45:14.893Z,99.90
2018-07-08T05:47:42.315Z,99.90
2018-07-08T05:50:09.875Z,99.90
2018-07-08T05:52:37.329Z,99.90
2018-07-08T05:55:04.769Z,99.90
2018-07-08T05:57:43.680Z,99.90
2018-07-08T06:00:11.047Z,99.90
2018-07-08T06:02:38.614Z,99.90
2018-07-08T06:05:06.004Z,99.90
2018-07-08T06:07:33.425Z,99.90
2018-07-08T06:10:00.758Z,99.90
2018-07-08T06:12:28.193Z,99.90
2018-07-08T06:14:55.638Z,99.90
2018-07-08T06:17:23.028Z,99.90
2018-07-08T06:19:50.440Z,99.90
2018-07-08T06:22:17.967Z,99.90
2018-07-08T06:24:45.413Z,99.90
2018-07-08T06:27:12.758Z,99.90
2018-07-08T06:29:40.181Z,99.90
2018-07-08T06:32:07.546Z,99.90
2018-07-08T06:34:35.018Z,99.90
2018-07-08T06:37:02.505Z,99.90
2018-07-08T06:39:30.207Z,99.90
2018-07-08T06:41:57.697Z,99.90
2018-07-08T06:44:25.128Z,99.90
2018-07-08T06:46:52.601Z,99.90
2018-07-08T06:49:19.959Z,99.90
2018-07-08T06:51:47.415Z,99.90
2018-07-08T06:54:15.035Z,99.90
2018-07-08T06:56:42.447Z,99.90
2018-07-08T06:59:09.881Z,99.90
2018-07-08T07:01:37.355Z,99.90
2018-07-08T07:04:04.931Z,99.90
2018-07-08T07:06:32.286Z,99.90
2018-07-08T07:08:59.768Z,99.90
2018-07-08T07:11:27.307Z,99.90
2018-07-08T07:13:54.713Z,99.90
2018-07-08T07:16:22.225Z,99.90
2018-07-08T07:18:49.610Z,99.90
2018-07-08T07:21:17.072Z,99.90
2018-07-08T07:23:44.499Z,99.90
2018-07-08T07:26:11.855Z,99.90
2018-07-08T07:28:39.163Z,99.90
2018-07-08T07:31:06.614Z,99.90
2018-07-08T07:36:01.349Z,99.90
2018-07-08T07:38:28.728Z,99.90
2018-07-08T07:40:56.122Z,99.90
2018-07-08T07:43:23.466Z,99.90
2018-07-08T07:45:50.930Z,99.90
2018-07-08T07:50:45.801Z,99.90
2018-07-08T07:53:13.229Z,99.90
2018-07-08T07:55:40.619Z,99.90
2018-07-08T07:58:08.115Z,99.90
2018-07-08T08:00:35.523Z,99.90
2018-07-08T08:03:02.954Z,99.90
2018-07-08T08:05:30.500Z,99.90
2018-07-08T08:07:59.136Z,99.90
2018-07-08T08:10:26.638Z,99.90
2018-07-08T08:15:21.379Z,99.90
2018-07-08T08:17:48.839Z,99.90
2018-07-08T08:20:16.140Z,99.90
2018-07-08T08:22:43.576Z,99.90
2018-07-08T08:25:10.870Z,99.90
2018-07-08T08:27:38.242Z,99.90
2018-07-08T08:30:05.675Z,99.90
2018-07-08T08:32:33.290Z,99.90
2018-07-08T08:35:08.457Z,99.90
2018-07-08T08:37:37.861Z,99.90
2018-07-08T08:40:05.961Z,99.90
2018-07-08T08:42:33.381Z,99.90
2018-07-08T08:45:01.192Z,99.90
2018-07-08T08:47:29.338Z,99.90
2018-07-08T08:49:56.988Z,99.90
2018-07-08T08:52:24.399Z,99.90
2018-07-08T08:54:52.224Z,99.90
2018-07-08T08:57:19.643Z,99.90
2018-07-08T08:59:46.984Z,99.90
2018-07-08T09:02:14.490Z,99.90
2018-07-08T09:04:42.506Z,99.90
2018-07-08T09:07:11.087Z,99.90
2018-07-08T09:09:38.497Z,99.90
2018-07-08T09:12:06.595Z,99.90
2018-07-08T09:14:34.216Z,99.90
2018-07-08T09:17:01.574Z,99.90
2018-07-08T09:19:28.943Z,99.90
2018-07-08T09:21:56.476Z,99.90
2018-07-08T09:24:24.702Z,99.90
2018-07-08T09:26:52.109Z,99.90
2018-07-08T09:29:19.558Z,99.90
2018-07-08T09:31:46.927Z,99.90
2018-07-08T09:34:14.498Z,99.90
2018-07-08T09:36:41.898Z,99.90
2018-07-08T09:39:11.092Z,99.90
2018-07-08T09:41:38.885Z,99.90
2018-07-08T09:44:06.307Z,99.90
2018-07-08T09:46:34.080Z,99.90
2018-07-08T09:49:01.891Z,99.90
2018-07-08T09:51:29.227Z,99.90
2018-07-08T09:53:56.667Z,99.90
2018-07-08T09:56:24.058Z,99.90
2018-07-08T09:58:51.838Z,99.90
2018-07-08T10:01:19.153Z,99.90
2018-07-08T10:03:46.565Z,99.90
2018-07-08T10:06:13.925Z,99.90
2018-07-08T10:08:41.313Z,99.90
2018-07-08T10:11:08.657Z,99.90
2018-07-08T10:13:36.119Z,99.90
2018-07-08T10:16:03.585Z,99.90
2018-07-08T10:18:30.991Z,97.20
2018-07-08T10:20:58.356Z,99.10
2018-07-08T10:23:25.735Z,96.80
2018-07-08T10:25:53.132Z,93.90
2018-07-08T10:28:22.643Z,96.00
2018-07-08T10:30:50.355Z,93.40
2018-07-08T10:33:17.716Z,92.90
2018-07-08T10:36:08.673Z,88.20
2018-07-08T10:38:36.093Z,92.40
2018-07-08T10:41:03.425Z,87.50
2018-07-08T10:43:30.863Z,92.10
2018-07-08T10:45:58.250Z,90.10
2018-07-08T10:48:25.727Z,86.10
2018-07-08T10:50:53.038Z,91.40
2018-07-08T10:53:22.479Z,90.70
2018-07-08T10:55:49.937Z,78.40
2018-07-08T10:58:17.301Z,85.20
2018-07-08T11:00:44.759Z,84.00
2018-07-08T11:03:12.172Z,79.10
2018-07-08T11:05:39.622Z,77.10
2018-07-08T11:08:07.074Z,73.30
2018-07-08T11:10:34.417Z,74.50
2018-07-08T11:13:01.766Z,78.40
2018-07-08T11:15:29.130Z,73.20
2018-07-08T11:17:56.590Z,76.00
2018-07-08T11:20:24.011Z,78.90
2018-07-08T11:22:51.403Z,76.70
2018-07-08T11:25:19.141Z,74.00
2018-07-08T11:27:46.668Z,76.90
2018-07-08T11:30:14.087Z,78.10
2018-07-08T11:32:41.508Z,72.80
2018-07-08T11:35:09.389Z,77.40
2018-07-08T11:37:36.810Z,78.30
2018-07-08T11:40:04.527Z,76.20
2018-07-08T11:44:59.306Z,77.10
2018-07-08T11:47:26.786Z,80.90
2018-07-08T11:49:54.271Z,83.20
2018-07-08T11:52:21.639Z,81.00
2018-07-08T11:54:49.054Z,82.00
2018-07-08T11:57:16.466Z,83.00
2018-07-08T11:59:43.923Z,80.50
2018-07-08T12:02:11.378Z,81.30
2018-07-08T12:04:38.850Z,84.90
2018-07-08T12:07:06.314Z,86.30
2018-07-08T12:09:33.748Z,83.80
2018-07-08T12:12:01.172Z,89.50
2018-07-08T12:14:29.046Z,89.30
2018-07-08T12:16:56.453Z,89.00
2018-07-08T12:19:23.962Z,83.60
2018-07-08T12:24:18.942Z,90.00
2018-07-08T12:26:46.392Z,87.50
2018-07-08T12:29:13.831Z,89.20
2018-07-08T12:31:41.309Z,89.80
2018-07-08T12:34:08.802Z,89.00
2018-07-08T12:36:36.742Z,89.10
2018-07-08T12:39:06.394Z,86.70
2018-07-08T12:41:33.797Z,86.50
2018-07-08T12:44:01.281Z,87.70
2018-07-08T12:46:28.789Z,88.80
2018-07-08T12:48:56.263Z,87.30
2018-07-08T12:51:23.715Z,87.20
2018-07-08T12:53:51.185Z,86.70
2018-07-08T12:56:18.621Z,87.40
2018-07-08T12:58:46.232Z,85.90
2018-07-08T13:01:13.669Z,83.80
2018-07-08T13:03:41.162Z,85.70
2018-07-08T13:06:08.484Z,84.00
2018-07-08T13:08:35.838Z,89.70
2018-07-08T13:11:03.359Z,89.50
2018-07-08T13:13:30.936Z,89.00
2018-07-08T13:15:58.359Z,90.30
2018-07-08T13:18:25.711Z,89.80
2018-07-08T13:20:53.218Z,87.10
2018-07-08T13:23:20.679Z,85.60
2018-07-08T13:28:15.467Z,90.20
2018-07-08T13:30:42.922Z,89.10
2018-07-08T13:33:10.365Z,88.30
2018-07-08T13:35:37.869Z,89.20
2018-07-08T13:38:05.282Z,88.60
2018-07-08T13:40:32.656Z,90.40
2018-07-08T13:43:00.033Z,90.30
2018-07-08T13:45:27.475Z,85.60
2018-07-08T13:47:54.885Z,88.40
2018-07-08T13:50:22.222Z,90.70
2018-07-08T13:52:49.707Z,86.00
2018-07-08T13:55:17.006Z,85.70
2018-07-08T13:57:44.414Z,84.80
2018-07-08T14:00:11.851Z,86.70
2018-07-08T14:02:39.378Z,86.90
2018-07-08T14:05:06.853Z,87.70
2018-07-08T14:10:01.693Z,86.80
2018-07-08T14:12:29.091Z,87.10
2018-07-08T14:14:56.438Z,85.70
2018-07-08T14:17:23.794Z,88.40
2018-07-08T14:19:51.285Z,87.60
2018-07-08T14:22:18.674Z,87.00
2018-07-08T14:24:46.128Z,87.40
2018-07-08T14:27:13.506Z,85.60
2018-07-08T14:29:40.891Z,85.40
2018-07-08T14:32:08.306Z,82.70
2018-07-08T14:34:35.757Z,85.20
2018-07-08T14:37:03.209Z,83.90
2018-07-08T14:39:30.637Z,84.90
2018-07-08T14:44:25.506Z,85.70
2018-07-08T14:46:53.134Z,85.60
2018-07-08T14:49:20.496Z,84.00
2018-07-08T14:51:48.034Z,85.20
2018-07-08T14:54:15.430Z,88.00
2018-07-08T14:56:42.978Z,86.70
2018-07-08T14:59:10.386Z,86.20
2018-07-08T15:01:37.788Z,85.70
2018-07-08T15:04:05.217Z,86.70
2018-07-08T15:06:32.684Z,84.80
2018-07-08T15:09:05.549Z,86.10
2018-07-08T15:11:34.756Z,85.40
2018-07-08T15:14:02.570Z,88.80
2018-07-08T15:16:30.139Z,89.80
2018-07-08T15:18:57.569Z,85.40
2018-07-08T15:21:24.994Z,86.60
2018-07-08T15:23:52.518Z,86.80
2018-07-08T15:26:20.078Z,87.20
2018-07-08T15:28:47.473Z,84.40
2018-07-08T15:31:14.906Z,87.70
2018-07-08T15:33:42.399Z,86.50
2018-07-08T15:36:09.839Z,87.40
2018-07-08T15:38:37.341Z,88.10
2018-07-08T15:41:04.766Z,89.00
2018-07-08T15:43:32.570Z,88.00
2018-07-08T15:46:00.024Z,88.50
2018-07-08T15:48:27.513Z,88.50
2018-07-08T15:50:55.002Z,87.20
2018-07-08T15:53:22.740Z,86.00
2018-07-08T15:55:50.204Z,86.90
2018-07-08T15:58:17.706Z,88.00
2018-07-08T16:00:45.404Z,88.90
2018-07-08T16:03:12.792Z,88.50
2018-07-08T16:05:40.194Z,89.50
2018-07-08T16:08:07.646Z,89.30
2018-07-08T16:10:34.986Z,88.40
2018-07-08T16:13:02.596Z,90.00
2018-07-08T16:15:30.035Z,88.90
2018-07-08T16:17:57.533Z,89.90
2018-07-08T16:20:25.114Z,90.00
2018-07-08T16:22:52.479Z,90.70
2018-07-08T16:25:20.010Z,90.20
2018-07-08T16:27:47.534Z,91.20
2018-07-08T16:30:15.125Z,91.80
2018-07-08T16:32:42.581Z,90.40
2018-07-08T16:35:10.087Z,91.00
2018-07-08T16:37:37.533Z,90.90
2018-07-08T16:40:05.282Z,90.80
2018-07-08T16:42:32.704Z,90.80
2018-07-08T16:45:00.113Z,91.80
2018-07-08T16:47:27.753Z,92.20
2018-07-08T16:49:55.227Z,90.70
2018-07-08T16:52:23.016Z,91.10
2018-07-08T16:54:50.451Z,92.00
2018-07-08T16:57:17.940Z,91.80
2018-07-08T16:59:45.765Z,92.00
2018-07-08T17:02:13.470Z,92.80
2018-07-08T17:04:41.042Z,92.10
2018-07-08T17:07:09.218Z,92.90
2018-07-08T17:09:36.621Z,92.60
2018-07-08T17:12:07.220Z,92.50
2018-07-08T17:14:34.737Z,92.80
2018-07-08T17:17:03.358Z,93.40
2018-07-08T17:19:32.551Z,93.40
2018-07-08T17:22:00.082Z,93.80
2018-07-08T17:24:28.759Z,93.50
2018-07-08T17:26:56.277Z,93.50
2018-07-08T17:29:23.826Z,93.60
2018-07-08T17:31:52.263Z,94.40
2018-07-08T17:34:19.752Z,95.20
2018-07-08T17:36:47.204Z,94.90
2018-07-08T17:39:14.752Z,95.30
2018-07-08T17:41:42.164Z,94.70
2018-07-08T17:44:09.602Z,95.00
2018-07-08T17:46:37.075Z,94.90
2018-07-08T17:49:04.502Z,95.00
2018-07-08T17:51:31.880Z,94.90
2018-07-08T17:54:01.103Z,94.80
2018-07-08T17:56:28.510Z,94.80
2018-07-08T17:58:55.930Z,95.10
2018-07-08T18:01:24.134Z,94.80
2018-07-08T18:03:51.685Z,95.00
2018-07-08T18:06:19.258Z,95.40
2018-07-08T18:08:46.888Z,95.40
2018-07-08T18:11:14.472Z,94.80
2018-07-08T18:13:42.072Z,94.90
2018-07-08T18:16:10.332Z,95.40
2018-07-08T18:18:37.816Z,95.40
2018-07-08T18:21:06.018Z,95.60
2018-07-08T18:23:34.177Z,95.50
2018-07-08T18:26:02.192Z,95.70
2018-07-08T18:28:29.747Z,95.70
2018-07-08T18:30:57.400Z,95.70
2018-07-08T18:33:24.977Z,95.70
2018-07-08T18:35:52.989Z,96.10
2018-07-08T18:38:20.696Z,96.50
2018-07-08T18:40:49.049Z,96.70
2018-07-08T18:43:16.722Z,96.50
2018-07-08T18:45:44.770Z,97.10
2018-07-08T18:48:12.509Z,97.50
2018-07-08T18:58:05.534Z,99.00
2018-07-08T19:00:33.005Z,99.20
2018-07-08T19:03:00.497Z,99.10
2018-07-08T19:05:27.989Z,99.30
2018-07-08T19:07:55.553Z,99.20
2018-07-08T19:10:23.057Z,99.20
2018-07-08T19:12:51.603Z,99.90
2018-07-08T19:15:19.126Z,99.90
2018-07-08T19:17:46.574Z,99.90
2018-07-08T19:20:13.999Z,99.90
2018-07-08T19:22:42.877Z,99.90
2018-07-08T19:25:10.996Z,99.90
2018-07-08T19:27:38.505Z,99.90
2018-07-08T19:30:06.233Z,99.90
2018-07-08T19:35:01.351Z,99.90
2018-07-08T19:39:56.539Z,99.90
2018-07-08T19:42:24.876Z,99.90
2018-07-08T19:44:54.215Z,99.90
2018-07-08T19:47:21.842Z,99.90
2018-07-08T19:49:50.133Z,99.90
2018-07-08T19:52:17.645Z,99.90
2018-07-08T19:57:20.589Z,99.90
2018-07-08T19:59:51.261Z,99.90
2018-07-08T20:02:18.756Z,99.90
2018-07-08T20:04:46.823Z,99.90
2018-07-08T20:07:15.112Z,99.90
2018-07-08T20:09:45.573Z,99.90
2018-07-08T20:12:13.106Z,99.90
2018-07-08T20:14:41.559Z,99.90
2018-07-08T20:17:09.162Z,99.90
2018-07-08T20:19:36.855Z,99.90
2018-07-08T20:22:04.461Z,99.90
2018-07-08T20:24:32.019Z,99.90
2018-07-08T20:26:59.538Z,99.90
2018-07-08T20:29:27.147Z,99.90
2018-07-08T20:31:54.616Z,99.90
2018-07-08T20:34:22.199Z,99.90
2018-07-08T20:36:59.827Z,99.90
2018-07-08T20:42:27.717Z,99.90
2018-07-08T20:44:58.811Z,99.90
2018-07-08T20:47:37.966Z,99.90
2018-07-08T20:50:16.960Z,99.90
2018-07-08T20:52:51.162Z,99.90
2018-07-08T20:59:08.398Z,99.90
2018-07-08T21:01:41.482Z,99.90
2018-07-08T21:04:15.829Z,99.90
2018-07-08T21:06:43.928Z,99.90
2018-07-08T21:09:11.470Z,99.90
2018-07-08T21:11:39.006Z,99.90
2018-07-08T21:14:06.580Z,99.90
2018-07-08T21:16:34.120Z,99.90
2018-07-08T21:19:01.594Z,99.90
2018-07-08T21:21:29.110Z,99.90
2018-07-08T21:23:56.503Z,99.90
2018-07-08T21:26:23.880Z,99.90
2018-07-08T21:28:51.440Z,99.90
2018-07-08T21:31:18.839Z,99.90
2018-07-08T21:33:46.326Z,99.90
2018-07-08T21:36:13.816Z,99.90
2018-07-08T21:38:41.670Z,99.90
2018-07-08T21:41:09.111Z,99.90
2018-07-08T21:43:36.669Z,99.90
2018-07-08T21:46:03.986Z,99.90
2018-07-08T21:48:31.430Z,99.90
2018-07-08T21:50:58.845Z,99.90
2018-07-08T21:53:26.693Z,99.90
2018-07-08T21:55:54.182Z,99.90
2018-07-08T21:58:21.714Z,99.90
2018-07-08T22:01:13.433Z,99.90
2018-07-08T22:06:08.685Z,99.90
2018-07-08T22:08:36.393Z,99.90
2018-07-08T22:11:05.298Z,99.90
2018-07-08T22:13:32.785Z,99.90
2018-07-08T22:16:00.374Z,99.90
2018-07-08T22:18:27.972Z,99.90
2018-07-08T22:20:55.341Z,99.90
2018-07-08T22:23:22.794Z,99.90
2018-07-08T22:25:50.320Z,99.90
2018-07-08T22:28:18.495Z,99.90
2018-07-08T22:30:45.903Z,99.90
2018-07-08T22:33:13.261Z,99.90
2018-07-08T22:35:40.748Z,99.90
2018-07-08T22:38:08.161Z,99.90
2018-07-08T22:40:35.581Z,99.90
2018-07-08T22:43:03.239Z,99.90
2018-07-08T22:45:30.657Z,99.90
2018-07-08T22:47:58.149Z,99.90
2018-07-08T22:50:25.523Z,99.90
2018-07-08T22:52:53.049Z,99.90
2018-07-08T22:55:20.438Z,99.90
2018-07-08T22:57:47.816Z,99.90
2018-07-08T23:00:26.888Z,99.90
2018-07-08T23:03:05.888Z,99.90
2018-07-08T23:05:33.318Z,99.90
2018-07-08T23:08:00.791Z,99.90
2018-07-08T23:10:28.222Z,99.90
2018-07-08T23:12:55.616Z,99.90
2018-07-08T23:15:22.978Z,99.90
2018-07-08T23:17:50.406Z,99.90
2018-07-08T23:20:17.852Z,99.90
2018-07-08T23:22:55.994Z,99.90
2018-07-08T23:25:23.510Z,99.90
2018-07-08T23:27:51.118Z,99.90
2018-07-08T23:30:18.562Z,99.90
2018-07-08T23:32:46.042Z,99.90
2018-07-08T23:35:13.418Z,99.90
2018-07-08T23:37:40.758Z,99.90
2018-07-08T23:40:08.150Z,99.90
2018-07-08T23:42:35.609Z,99.90
2018-07-08T23:45:03.234Z,99.90
2018-07-08T23:47:30.667Z,99.90
2018-07-08T23:49:58.093Z,99.90
2018-07-08T23:52:25.429Z,99.90
2018-07-08T23:54:52.842Z,99.90
2018-07-08T23:57:20.309Z,99.90
2018-07-08T23:59:47.644Z,99.90
